createdAt,value
2023-05-02T00:02:03.806Z,2.08
2023-05-02T00:07:06.102Z,1.70
2023-05-02T00:12:08.238Z,2.10
2023-05-02T00:17:17.562Z,1.60
2023-05-02T00:22:20.218Z,1.60
2023-05-02T00:27:22.330Z,1.70
2023-05-02T00:32:24.519Z,2.03
2023-05-02T00:37:28.591Z,1.75
2023-05-02T00:42:34.671Z,1.60
2023-05-02T00:47:36.935Z,1.55
2023-05-02T00:52:39.084Z,1.83
2023-05-02T00:57:41.554Z,1.50
2023-05-02T01:02:59.049Z,1.70
2023-05-02T01:08:05.859Z,1.80
2023-05-02T01:13:17.829Z,1.60
2023-05-02T01:18:23.859Z,2.72
2023-05-02T01:24:00.745Z,2.60
2023-05-02T01:29:04.860Z,1.98
2023-05-02T01:34:10.391Z,1.65
2023-05-02T01:39:18.567Z,1.85
2023-05-02T01:44:23.500Z,2.03
2023-05-02T01:49:26.904Z,1.60
2023-05-02T01:54:30.848Z,2.00
2023-05-02T01:59:34.277Z,1.50
2023-05-02T02:04:39.019Z,1.50
2023-05-02T02:09:42.016Z,1.70
2023-05-02T02:14:49.977Z,1.88
2023-05-02T02:19:55.077Z,1.70
2023-05-02T02:24:59.007Z,1.80
2023-05-02T02:30:01.817Z,1.77
2023-05-02T02:35:05.008Z,1.60
2023-05-02T02:40:10.277Z,1.40
2023-05-02T02:45:24.221Z,1.70
2023-05-02T02:51:07.721Z,1.40
2023-05-02T02:56:17.207Z,1.60
2023-05-02T03:01:22.117Z,1.60
2023-05-02T03:06:25.155Z,1.60
2023-05-02T03:11:29.471Z,1.90
2023-05-02T03:16:38.003Z,1.92
2023-05-02T03:21:43.569Z,1.88
2023-05-02T03:26:55.204Z,1.88
2023-05-02T03:32:00.707Z,1.88
2023-05-02T03:37:03.104Z,2.08
2023-05-02T03:42:06.244Z,2.28
2023-05-02T03:47:08.604Z,2.35
2023-05-02T03:52:15.083Z,2.00
2023-05-02T03:57:19.048Z,2.05
2023-05-02T04:02:21.418Z,2.20
2023-05-02T04:07:25.917Z,1.90
2023-05-02T04:12:35.067Z,2.25
2023-05-02T04:17:38.050Z,2.38
2023-05-02T04:22:42.226Z,2.30
2023-05-02T04:27:44.616Z,1.83
2023-05-02T04:32:51.063Z,1.90
2023-05-02T04:37:53.553Z,2.72
2023-05-02T04:42:56.225Z,2.40
2023-05-02T04:48:02.542Z,2.30
2023-05-02T04:53:04.796Z,2.33
2023-05-02T04:58:08.464Z,1.92
2023-05-02T05:03:11.497Z,2.00
2023-05-02T05:08:13.866Z,1.88
2023-05-02T05:13:16.372Z,2.05
2023-05-02T05:18:21.804Z,1.83
2023-05-02T05:23:24.045Z,1.98
2023-05-02T05:28:27.342Z,1.85
2023-05-02T05:33:29.535Z,2.03
2023-05-02T05:38:32.191Z,2.35
2023-05-02T05:43:36.638Z,2.38
2023-05-02T05:48:40.688Z,2.50
2023-05-02T05:53:43.094Z,2.47
2023-05-02T05:58:47.535Z,2.03
2023-05-02T06:03:50.732Z,2.33
2023-05-02T06:08:53.883Z,2.10
2023-05-02T06:13:56.618Z,2.00
2023-05-02T06:18:59.291Z,2.40
2023-05-02T06:24:01.455Z,3.28
2023-05-02T06:29:03.724Z,2.08
2023-05-02T06:34:05.904Z,1.90
2023-05-02T06:39:08.529Z,1.85
2023-05-02T06:44:10.803Z,1.90
2023-05-02T06:49:12.953Z,1.88
2023-05-02T06:54:15.986Z,2.00
2023-05-02T06:59:18.267Z,1.83
2023-05-02T07:04:20.408Z,1.80
2023-05-02T07:09:22.463Z,1.70
2023-05-02T07:14:24.590Z,1.58
2023-05-02T07:19:26.657Z,1.40
2023-05-02T07:24:28.819Z,1.40
2023-05-02T07:29:30.888Z,1.50
2023-05-02T07:34:33.070Z,1.30
2023-05-02T07:39:35.250Z,1.30
2023-05-02T07:44:37.492Z,0.93
2023-05-02T07:49:39.753Z,1.30
2023-05-02T07:54:42.361Z,1.10
2023-05-02T07:59:44.487Z,1.10
2023-05-02T08:04:48.146Z,0.90
2023-05-02T08:09:50.645Z,0.90
2023-05-02T08:14:52.926Z,0.90
2023-05-02T08:19:54.958Z,0.90
2023-05-02T08:24:57.063Z,0.95
2023-05-02T08:30:00.765Z,0.90
2023-05-02T08:35:03.547Z,0.98
2023-05-02T08:40:07.927Z,0.80
2023-05-02T08:45:14.031Z,0.70
2023-05-02T08:50:19.255Z,0.90
2023-05-02T08:55:27.787Z,1.25
2023-05-02T09:00:30.836Z,0.95
2023-05-02T09:05:42.500Z,1.30
2023-05-02T09:10:45.896Z,1.10
2023-05-02T09:16:00.873Z,0.80
2023-05-02T09:21:09.950Z,0.80
2023-05-02T09:26:34.154Z,0.93
2023-05-02T09:36:46.992Z,1.10
2023-05-02T09:41:49.477Z,0.90
2023-05-02T09:46:57.626Z,0.80
2023-05-02T09:52:11.489Z,0.70
2023-05-02T09:57:13.723Z,0.80
2023-05-02T10:02:16.142Z,0.60
2023-05-02T10:07:18.277Z,0.60
2023-05-02T10:12:21.707Z,0.88
2023-05-02T10:17:31.675Z,0.60
2023-05-02T10:22:35.406Z,0.80
2023-05-02T10:27:38.006Z,0.82
2023-05-02T10:32:40.971Z,0.90
2023-05-02T10:37:43.968Z,0.77
2023-05-02T10:42:51.177Z,0.70
2023-05-02T10:48:19.908Z,0.70
2023-05-02T10:53:26.973Z,0.88
2023-05-02T10:58:29.115Z,0.70
2023-05-02T11:03:54.193Z,0.75
2023-05-02T11:09:11.913Z,0.60
2023-05-02T11:14:26.060Z,0.70
2023-05-02T11:19:31.331Z,0.52
2023-05-02T11:24:47.917Z,0.60
2023-05-02T11:29:59.541Z,0.50
2023-05-02T11:35:02.109Z,0.60
2023-05-02T11:40:15.924Z,0.50
2023-05-02T11:45:18.804Z,0.60
2023-05-02T11:50:21.046Z,0.50
2023-05-02T11:55:23.181Z,0.57
2023-05-02T12:00:28.289Z,0.50
2023-05-02T12:05:30.674Z,0.60
2023-05-02T12:10:37.708Z,0.50
2023-05-02T12:15:40.084Z,0.60
2023-05-02T12:20:43.101Z,0.60
2023-05-02T12:25:45.589Z,0.70
2023-05-02T12:30:49.744Z,0.60
2023-05-02T12:35:54.006Z,0.80
2023-05-02T12:40:58.922Z,0.95
2023-05-02T12:46:10.936Z,0.87
2023-05-02T12:51:28.602Z,0.90
2023-05-02T12:56:34.679Z,0.70
2023-05-02T13:01:36.856Z,0.93
2023-05-02T13:06:39.171Z,0.70
2023-05-02T13:11:42.588Z,0.73
2023-05-02T13:16:44.751Z,0.98
2023-05-02T13:21:47.240Z,0.90
2023-05-02T13:26:49.629Z,0.68
2023-05-02T13:31:51.692Z,0.88
2023-05-02T13:36:53.990Z,0.70
2023-05-02T13:41:56.080Z,0.60
2023-05-02T13:46:58.584Z,0.60
2023-05-02T13:52:00.831Z,0.93
2023-05-02T13:57:03.162Z,0.70
2023-05-02T14:02:06.030Z,0.60
2023-05-02T14:07:08.244Z,0.70
2023-05-02T14:12:11.166Z,0.80
2023-05-02T14:17:13.492Z,0.90
2023-05-02T14:22:16.163Z,0.90
2023-05-02T14:27:18.503Z,0.85
2023-05-02T14:32:21.692Z,0.90
2023-05-02T14:37:23.861Z,0.90
2023-05-02T14:42:26.169Z,0.75
2023-05-02T14:47:31.263Z,1.05
2023-05-02T14:57:35.744Z,1.02
2023-05-02T15:02:38.051Z,0.95
2023-05-02T15:07:40.230Z,1.20
2023-05-02T15:12:43.268Z,1.65
2023-05-02T15:17:45.618Z,0.80
2023-05-02T15:22:47.798Z,1.10
2023-05-02T15:27:50.463Z,1.20
2023-05-02T15:32:52.639Z,1.30
2023-05-02T15:37:55.744Z,0.98
2023-05-02T15:42:57.842Z,0.90
2023-05-02T15:48:00.009Z,0.60
2023-05-02T15:53:02.116Z,0.60
2023-05-02T15:58:04.349Z,0.60
2023-05-02T16:03:06.567Z,0.80
2023-05-02T16:08:08.751Z,0.80
2023-05-02T16:13:10.973Z,0.90
2023-05-02T16:18:13.120Z,0.52
2023-05-02T16:23:15.359Z,0.95
2023-05-02T16:28:17.569Z,1.08
2023-05-02T16:33:21.394Z,0.93
2023-05-02T16:38:23.457Z,0.95
2023-05-02T16:43:25.588Z,0.90
2023-05-02T16:48:27.758Z,0.88
2023-05-02T16:53:30.976Z,0.90
2023-05-02T16:58:33.097Z,0.70
2023-05-02T17:03:35.173Z,0.90
2023-05-02T17:08:38.123Z,1.00
2023-05-02T17:13:40.248Z,1.25
2023-05-02T17:18:42.287Z,0.90
2023-05-02T17:23:44.436Z,0.90
2023-05-02T17:28:46.499Z,1.10
2023-05-02T17:33:48.580Z,1.13
2023-05-02T17:38:50.654Z,0.80
2023-05-02T17:43:53.265Z,1.20
2023-05-02T17:48:55.449Z,1.08
2023-05-02T17:53:57.538Z,0.80
2023-05-02T17:59:00.492Z,1.10
2023-05-02T18:04:04.098Z,1.13
2023-05-02T18:09:06.310Z,1.40
2023-05-02T18:14:14.443Z,1.80
2023-05-02T18:19:16.547Z,2.00
2023-05-02T18:24:18.712Z,1.80
2023-05-02T18:29:20.796Z,1.45
2023-05-02T18:34:22.971Z,1.65
2023-05-02T18:39:25.098Z,1.90
2023-05-02T18:44:27.178Z,1.65
2023-05-02T18:49:29.284Z,1.90
2023-05-02T18:54:33.495Z,1.40
2023-05-02T18:59:35.596Z,1.52
2023-05-02T19:04:37.697Z,1.60
2023-05-02T19:09:40.352Z,2.05
2023-05-02T19:14:42.576Z,1.50
2023-05-02T19:19:47.973Z,1.90
2023-05-02T19:24:50.886Z,1.95
2023-05-02T19:29:54.176Z,1.55
2023-05-02T19:34:56.905Z,1.50
2023-05-02T19:39:59.375Z,1.23
2023-05-02T19:45:01.726Z,1.27
2023-05-02T19:50:04.335Z,1.67
2023-05-02T19:55:07.933Z,1.40
2023-05-02T20:00:10.697Z,1.42
2023-05-02T20:05:15.590Z,1.60
2023-05-02T20:10:20.862Z,1.23
2023-05-02T20:15:23.117Z,1.27
2023-05-02T20:20:25.367Z,1.52
2023-05-02T20:25:27.522Z,1.77
2023-05-02T20:30:29.581Z,1.52
2023-05-02T20:35:31.670Z,1.50
2023-05-02T20:40:34.008Z,1.40
2023-05-02T20:45:36.149Z,1.65
2023-05-02T20:50:38.196Z,1.48
2023-05-02T20:55:40.324Z,1.70
2023-05-02T21:00:43.072Z,2.03
2023-05-02T21:05:45.773Z,2.35
2023-05-02T21:10:47.957Z,2.38
2023-05-02T21:15:50.085Z,2.20
2023-05-02T21:20:52.184Z,2.40
2023-05-02T21:25:55.072Z,2.60
2023-05-02T21:30:57.343Z,2.30
2023-05-02T21:35:59.749Z,2.42
2023-05-02T21:41:04.002Z,3.05
2023-05-02T21:46:06.232Z,2.90
2023-05-02T21:51:12.077Z,2.67
2023-05-02T21:56:14.303Z,2.67
2023-05-02T22:01:16.639Z,2.25
2023-05-02T22:06:19.102Z,2.20
2023-05-02T22:11:21.835Z,3.10
2023-05-02T22:16:24.034Z,3.00
2023-05-02T22:21:27.198Z,2.45
2023-05-02T22:26:29.303Z,2.90
2023-05-02T22:31:31.458Z,2.67
2023-05-02T22:36:33.652Z,2.78
2023-05-02T22:41:35.983Z,2.92
2023-05-02T22:46:38.830Z,2.83
2023-05-02T22:51:41.684Z,2.58
2023-05-02T22:56:44.134Z,2.85
2023-05-02T23:01:46.269Z,2.75
2023-05-02T23:06:48.502Z,2.83
2023-05-02T23:11:51.493Z,2.95
2023-05-02T23:16:53.961Z,2.47
2023-05-02T23:21:56.186Z,2.75
2023-05-02T23:26:58.339Z,3.13
2023-05-02T23:32:00.639Z,2.47
2023-05-02T23:37:03.200Z,3.15
2023-05-02T23:42:05.692Z,3.55
2023-05-02T23:47:08.079Z,3.13
2023-05-02T23:52:10.833Z,3.50
2023-05-02T23:57:13.466Z,3.88
